Time;durP1;ratioP1;P1;durP2;ratioP2;P2;SDS_P1;SDS_P2;PMS_P1;PMS_P2;Temp;Humidity;BMP_temperature;BMP_pressure;BME280_temperature;BME280_humidity;BME280_pressure;Samples;Min_cycle;Max_cycle;Signal;HPM_P1;HPM_P2
2022/03/16 00:00:19;;;;;;;5.45;1.17;;;;;;;15.39;47.18;101770.81;5052853;28;20076;-81
2022/03/16 00:02:48;;;;;;;2.85;0.90;;;;;;;15.25;46.18;101766.13;5051323;28;20103;-84
2022/03/16 00:05:19;;;;;;;2.97;0.70;;;;;;;15.11;46.81;101775.31;5050208;28;20103;-78
2022/03/16 00:07:47;;;;;;;3.33;0.65;;;;;;;14.95;47.67;101778.34;5049848;28;20045;-77
2022/03/16 00:10:16;;;;;;;4.93;1.17;;;;;;;14.82;49.48;101775.41;5048900;28;20102;-77
2022/03/16 00:12:45;;;;;;;2.88;0.73;;;;;;;14.73;50.15;101774.22;5049357;28;20045;-80
2022/03/16 00:15:13;;;;;;;2.88;0.73;;;;;;;14.59;50.35;101779.94;5049742;28;20041;-76
2022/03/16 00:17:42;;;;;;;4.82;0.90;;;;;;;14.45;49.83;101789.00;5049804;28;20048;-77
2022/03/16 00:20:12;;;;;;;7.60;1.08;;;;;;;14.27;54.74;101793.66;5053185;28;20053;-81
2022/03/16 00:22:42;;;;;;;2.70;0.88;;;;;;;14.11;57.27;101787.09;5045752;28;20112;-81
2022/03/16 00:25:12;;;;;;;3.28;0.82;;;;;;;13.99;58.67;101787.59;5030973;28;20046;-78
2022/03/16 00:27:41;;;;;;;2.58;0.40;;;;;;;13.84;59.12;101780.19;5031288;28;20121;-81
2022/03/16 00:30:10;;;;;;;3.92;0.80;;;;;;;13.72;60.69;101782.38;5031856;28;20049;-77
2022/03/16 00:32:39;;;;;;;4.22;0.82;;;;;;;13.57;62.13;101791.44;5028614;28;20053;-78
2022/03/16 00:35:08;;;;;;;6.30;0.82;;;;;;;13.46;62.23;101790.19;5029200;28;20041;-79
2022/03/16 00:37:37;;;;;;;3.45;1.63;;;;;;;13.43;63.60;101800.50;5028825;28;20073;-79
2022/03/16 00:40:09;;;;;;;4.88;1.77;;;;;;;13.39;62.93;101811.59;5029590;28;20103;-76
2022/03/16 00:42:37;;;;;;;3.00;1.52;;;;;;;13.36;63.41;101814.09;5028579;28;20046;-77
2022/03/16 00:45:06;;;;;;;3.80;1.33;;;;;;;13.24;64.39;101814.53;5029809;28;20053;-78
2022/03/16 00:47:35;;;;;;;10.23;2.10;;;;;;;13.13;65.73;101824.53;5029805;28;20092;-78
2022/03/16 00:50:04;;;;;;;4.85;1.00;;;;;;;12.95;66.83;101816.06;5030546;28;20077;-76
2022/03/16 00:52:32;;;;;;;6.47;1.20;;;;;;;12.86;67.67;101826.13;5027827;28;20721;-80
2022/03/16 00:55:00;;;;;;;5.22;1.00;;;;;;;12.75;69.07;101830.91;5030836;28;20092;-78
2022/03/16 00:57:31;;;;;;;4.38;1.40;;;;;;;12.63;68.77;101833.94;5030008;28;20116;-77
2022/03/16 00:59:59;;;;;;;3.45;0.75;;;;;;;12.52;70.62;101845.59;5030541;28;20045;-75
2022/03/16 01:02:28;;;;;;;5.05;0.73;;;;;;;12.38;69.50;101826.91;5029196;28;20049;-76
2022/03/16 01:04:57;;;;;;;4.95;0.70;;;;;;;12.30;69.76;101825.69;5016315;28;20132;-76
2022/03/16 01:07:25;;;;;;;2.03;0.50;;;;;;;12.22;67.43;101830.59;5030070;28;20159;-76
2022/03/16 01:09:55;;;;;;;3.08;0.63;;;;;;;12.17;69.27;101826.94;5029586;28;20116;-76
2022/03/16 01:12:23;;;;;;;5.43;1.00;;;;;;;12.13;69.40;101838.00;5029277;28;20598;-76
2022/03/16 01:14:53;;;;;;;3.30;0.50;;;;;;;12.07;69.66;101835.16;5031919;28;20487;-75
2022/03/16 01:17:22;;;;;;;4.22;1.35;;;;;;;12.03;68.78;101838.47;5031010;28;20069;-74
2022/03/16 01:19:50;;;;;;;3.75;0.60;;;;;;;11.98;68.34;101839.97;5030562;28;20055;-75
2022/03/16 01:22:19;;;;;;;4.22;0.90;;;;;;;11.97;68.85;101833.03;5030248;28;20054;-76
2022/03/16 01:24:48;;;;;;;4.25;0.75;;;;;;;11.90;69.30;101843.13;5029213;28;20103;-77
2022/03/16 01:27:16;;;;;;;2.42;0.80;;;;;;;11.89;69.73;101841.38;5029306;28;20107;-78
2022/03/16 01:29:45;;;;;;;3.30;0.85;;;;;;;11.87;68.89;101843.03;5029203;28;20045;-77
2022/03/16 01:32:15;;;;;;;3.10;0.52;;;;;;;11.85;68.81;101844.63;5029132;28;20053;-77
2022/03/16 01:34:43;;;;;;;7.20;1.10;;;;;;;11.81;68.19;101842.72;5029374;28;20119;-77
2022/03/16 01:37:12;;;;;;;4.18;0.88;;;;;;;11.78;68.54;101849.50;5028900;28;20565;-79
2022/03/16 01:39:40;;;;;;;6.70;0.60;;;;;;;11.73;68.88;101841.53;5027270;28;20053;-78
2022/03/16 01:42:09;;;;;;;2.35;0.50;;;;;;;11.69;68.19;101847.41;5028402;28;20480;-79
2022/03/16 01:44:47;;;;;;;5.78;0.60;;;;;;;11.66;68.41;101847.25;5028430;28;20134;-79
2022/03/16 01:47:19;;;;;;;2.03;0.55;;;;;;;11.65;68.65;101851.56;5028415;28;20095;-79
2022/03/16 01:49:48;;;;;;;3.13;0.70;;;;;;;11.60;68.33;101857.38;5048568;28;20057;-80
2022/03/16 01:52:19;;;;;;;2.75;0.57;;;;;;;11.56;69.49;101852.88;5048550;28;20048;-79
2022/03/16 01:54:48;;;;;;;4.80;0.82;;;;;;;11.52;69.76;101855.34;5049713;28;20525;-78
2022/03/16 01:57:17;;;;;;;5.40;0.60;;;;;;;11.52;69.61;101854.44;5049533;28;20106;-79
2022/03/16 01:59:46;;;;;;;3.53;0.90;;;;;;;11.50;69.47;101862.16;5044381;28;20132;-76
2022/03/16 02:02:15;;;;;;;2.85;1.27;;;;;;;11.40;70.53;101849.63;5029310;28;20045;-80
2022/03/16 02:04:45;;;;;;;5.60;0.82;;;;;;;11.45;70.52;101861.09;5048951;28;20095;-83
2022/03/16 02:07:14;;;;;;;3.20;0.65;;;;;;;11.39;69.25;101858.22;5054830;28;20124;-81
2022/03/16 02:09:42;;;;;;;4.00;0.52;;;;;;;11.36;70.44;101862.38;5053887;28;20103;-82
2022/03/16 02:12:14;;;;;;;7.63;0.90;;;;;;;11.32;70.36;101863.97;5056455;28;20160;-86
2022/03/16 02:14:42;;;;;;;1.27;0.50;;;;;;;11.28;69.69;101868.09;5053393;28;20041;-82
2022/03/16 02:17:11;;;;;;;6.32;1.05;;;;;;;11.24;69.64;101866.19;5052391;28;20045;-78
2022/03/16 02:19:40;;;;;;;7.13;0.80;;;;;;;11.20;70.55;101871.16;5053421;28;20414;-82
2022/03/16 02:22:15;;;;;;;4.32;0.80;;;;;;;11.16;70.59;101869.28;5052063;28;20552;-80
2022/03/16 02:24:45;;;;;;;1.92;1.08;;;;;;;11.11;71.76;101867.38;5032396;28;20068;-82
2022/03/16 02:27:13;;;;;;;5.50;0.90;;;;;;;11.04;71.21;101865.31;5030658;28;20045;-83
2022/03/16 02:29:42;;;;;;;4.88;1.85;;;;;;;10.99;71.24;101864.19;5021171;28;20204;-79
2022/03/16 02:32:11;;;;;;;5.90;1.33;;;;;;;10.94;72.04;101864.81;5032942;28;20053;-79
2022/03/16 02:34:39;;;;;;;3.03;0.70;;;;;;;10.90;72.15;101871.56;5031103;28;20084;-81
2022/03/16 02:37:08;;;;;;;5.93;1.00;;;;;;;10.82;71.56;101867.75;5032796;28;20085;-80
2022/03/16 02:39:36;;;;;;;4.18;1.10;;;;;;;10.71;73.60;101871.53;5052705;28;20080;-78
2022/03/16 02:42:07;;;;;;;4.40;0.90;;;;;;;10.60;73.49;101863.25;5053123;28;20049;-80
2022/03/16 02:44:36;;;;;;;2.15;1.02;;;;;;;10.51;73.92;101862.81;5052548;28;20052;-81
2022/03/16 02:47:05;;;;;;;5.07;1.08;;;;;;;10.47;74.32;101862.69;5038966;28;20049;-82
2022/03/16 02:49:34;;;;;;;4.72;0.70;;;;;;;10.42;75.49;101868.44;5052835;28;20087;-81
2022/03/16 02:52:08;;;;;;;10.38;2.38;;;;;;;10.37;75.24;101877.69;5052805;28;20047;-85
2022/03/16 02:54:36;;;;;;;9.25;1.38;;;;;;;10.35;76.51;101879.31;5052914;28;20041;-86
2022/03/16 02:57:07;;;;;;;8.60;1.55;;;;;;;10.32;76.83;101882.63;5052983;28;20041;-83
2022/03/16 02:59:36;;;;;;;4.07;1.35;;;;;;;10.31;76.97;101883.47;5052523;28;20679;-85
2022/03/16 03:02:05;;;;;;;1.83;0.63;;;;;;;10.30;77.15;101881.66;5052909;28;20053;-85
2022/03/16 03:04:33;;;;;;;5.13;1.27;;;;;;;10.29;77.91;101887.66;5052088;28;20099;-83
2022/03/16 03:07:02;;;;;;;5.90;1.52;;;;;;;10.25;77.63;101894.34;5052415;28;20502;-83
2022/03/16 03:09:30;;;;;;;3.58;1.42;;;;;;;10.20;78.04;101890.66;5054967;28;20052;-81
2022/03/16 03:11:59;;;;;;;3.72;1.45;;;;;;;10.15;77.30;101896.44;5052611;28;20045;-80
2022/03/16 03:14:29;;;;;;;3.65;1.17;;;;;;;10.12;77.24;101899.72;5051327;28;20044;-81
2022/03/16 03:16:58;;;;;;;5.28;2.00;;;;;;;10.10;78.11;101898.78;5052262;28;20080;-80
2022/03/16 03:19:26;;;;;;;8.40;1.50;;;;;;;10.03;76.66;101902.75;5052112;28;20122;-81
2022/03/16 03:21:55;;;;;;;8.35;2.00;;;;;;;10.00;77.54;101906.88;5052154;28;20052;-81
2022/03/16 03:24:24;;;;;;;5.45;1.27;;;;;;;9.92;77.96;101903.00;5052035;28;20514;-84
2022/03/16 03:26:52;;;;;;;5.03;1.42;;;;;;;9.99;77.90;101915.47;5051926;28;20127;-81
2022/03/16 03:29:21;;;;;;;1.67;0.93;;;;;;;9.98;78.16;101924.00;5051857;28;20534;-80
2022/03/16 03:31:51;;;;;;;3.42;0.88;;;;;;;9.96;77.73;101923.03;5051574;28;20080;-83
2022/03/16 03:34:19;;;;;;;6.18;0.88;;;;;;;9.88;77.91;101912.31;5051265;28;20052;-82
2022/03/16 03:36:48;;;;;;;3.08;0.52;;;;;;;9.94;77.30;101927.25;5051673;28;20560;-80
2022/03/16 03:39:16;;;;;;;6.53;1.10;;;;;;;9.94;77.06;101932.41;5051713;28;20352;-77
2022/03/16 03:41:45;;;;;;;1.27;0.82;;;;;;;9.93;78.68;101941.00;5051912;28;20045;-81
2022/03/16 03:44:13;;;;;;;1.40;0.70;;;;;;;9.90;79.82;101940.84;5051515;28;20083;-80
2022/03/16 03:46:42;;;;;;;7.00;1.15;;;;;;;9.83;80.97;101939.66;5051715;28;20150;-83
2022/03/16 03:49:12;;;;;;;2.28;0.85;;;;;;;9.69;100.00;101941.53;5052517;28;20040;-86
2022/03/16 03:51:40;;;;;;;1.60;0.75;;;;;;;9.54;100.00;101943.28;5051803;28;20106;-83
2022/03/16 03:54:09;;;;;;;3.25;0.70;;;;;;;9.42;100.00;101940.94;5052020;28;20548;-83
2022/03/16 03:56:37;;;;;;;5.90;1.40;;;;;;;9.36;100.00;101944.06;5053011;28;20457;-86
2022/03/16 03:59:06;;;;;;;2.65;0.60;;;;;;;9.34;100.00;101947.38;5056551;28;20049;-85
2022/03/16 04:01:34;;;;;;;21.70;2.75;;;;;;;9.37;100.00;101956.22;5054955;28;20087;-85
2022/03/16 04:04:03;;;;;;;15.43;2.15;;;;;;;9.37;100.00;101948.47;5051569;28;20068;-87
2022/03/16 04:06:33;;;;;;;3.53;0.80;;;;;;;9.38;100.00;101947.63;5053097;28;20080;-84
2022/03/16 04:09:02;;;;;;;12.73;1.40;;;;;;;9.44;100.00;101955.72;5054182;28;20107;-85
2022/03/16 04:11:30;;;;;;;3.33;0.93;;;;;;;9.48;100.00;101958.47;5051724;28;20491;-88
2022/03/16 04:13:59;;;;;;;3.67;1.15;;;;;;;9.51;100.00;101961.22;5038304;28;20136;-82
2022/03/16 04:16:27;;;;;;;3.60;0.60;;;;;;;9.52;100.00;101963.88;5043922;28;20053;-82
2022/03/16 04:18:56;;;;;;;4.93;0.73;;;;;;;9.54;100.00;101967.44;5051153;28;20049;-79
2022/03/16 04:21:24;;;;;;;3.28;0.93;;;;;;;9.55;100.00;101966.63;5051133;28;20479;-81
2022/03/16 04:23:55;;;;;;;10.50;1.27;;;;;;;9.56;100.00;101968.41;5039259;28;20053;-82
2022/03/16 04:26:24;;;;;;;5.68;1.00;;;;;;;9.59;100.00;101965.09;5024285;28;20555;-82
2022/03/16 04:28:52;;;;;;;1.90;0.80;;;;;;;9.59;100.00;101970.25;5029495;28;20615;-85
2022/03/16 04:31:21;;;;;;;9.55;1.25;;;;;;;9.57;100.00;101967.56;5049313;28;20049;-85
2022/03/16 04:33:50;;;;;;;4.85;1.23;;;;;;;9.49;100.00;101955.97;5049213;28;20265;-81
2022/03/16 04:36:18;;;;;;;7.07;1.02;;;;;;;9.57;100.00;101987.38;5049117;28;20048;-81
2022/03/16 04:38:47;;;;;;;5.88;1.27;;;;;;;9.56;100.00;101985.59;5049306;28;20287;-78
2022/03/16 04:41:17;;;;;;;1.75;0.60;;;;;;;9.54;100.00;101984.63;5038762;28;20527;-79
2022/03/16 04:43:46;;;;;;;4.22;0.90;;;;;;;9.49;100.00;101989.56;5048934;28;20052;-80
2022/03/16 04:46:14;;;;;;;3.50;0.88;;;;;;;9.41;100.00;101986.56;5049573;28;20690;-79
2022/03/16 04:48:43;;;;;;;3.78;0.82;;;;;;;9.35;99.50;101986.22;5049398;28;20494;-80
2022/03/16 04:51:12;;;;;;;3.00;0.88;;;;;;;9.27;100.00;101987.50;5048642;28;20048;-83
2022/03/16 04:53:40;;;;;;;5.70;1.23;;;;;;;9.20;100.00;102001.75;5049147;28;20056;-80
2022/03/16 04:56:09;;;;;;;4.60;0.60;;;;;;;9.09;100.00;101997.69;5048945;28;20482;-79
2022/03/16 04:58:39;;;;;;;4.10;0.77;;;;;;;8.99;100.00;102000.59;5049055;28;20053;-82
2022/03/16 05:01:07;;;;;;;2.85;1.30;;;;;;;8.90;100.00;101997.50;5049260;28;20674;-85
2022/03/16 05:03:36;;;;;;;8.40;1.42;;;;;;;8.84;100.00;102004.88;5051194;28;20053;-83
2022/03/16 05:06:04;;;;;;;7.32;1.05;;;;;;;8.81;100.00;102005.59;5053023;28;20048;-83
2022/03/16 05:08:35;;;;;;;2.35;0.73;;;;;;;8.79;100.00;102012.38;5051259;28;20590;-83
2022/03/16 05:11:04;;;;;;;5.72;0.98;;;;;;;8.71;100.00;102011.06;5047854;28;20049;-79
2022/03/16 05:13:33;;;;;;;3.92;1.10;;;;;;;8.63;100.00;102017.44;5047956;28;20048;-81
2022/03/16 05:16:11;;;;;;;5.05;0.88;;;;;;;8.57;100.00;102018.00;5041444;28;20847;-81
2022/03/16 05:18:43;;;;;;;3.92;0.63;;;;;;;8.53;100.00;102026.34;5049022;28;20080;-85
2022/03/16 05:21:11;;;;;;;5.15;1.10;;;;;;;8.48;100.00;102028.66;5049984;28;20119;-85
2022/03/16 05:23:52;;;;;;;4.43;0.65;;;;;;;8.41;100.00;102029.13;5042998;28;20128;-83
2022/03/16 05:26:21;;;;;;;1.73;0.80;;;;;;;8.36;100.00;102031.41;5025158;28;20752;-86
2022/03/16 05:28:49;;;;;;;6.88;0.75;;;;;;;8.34;100.00;102040.72;5023236;28;20073;-81
2022/03/16 05:31:19;;;;;;;7.63;1.20;;;;;;;8.35;100.00;102039.03;5023624;28;20064;-81
2022/03/16 05:33:48;;;;;;;2.70;0.60;;;;;;;8.37;100.00;102042.59;5028692;28;20580;-81
2022/03/16 05:36:16;;;;;;;7.35;1.48;;;;;;;8.38;100.00;102044.34;5029020;28;20057;-79
2022/03/16 05:38:45;;;;;;;6.47;1.60;;;;;;;8.36;100.00;102038.22;5029490;28;20053;-81
2022/03/16 05:41:14;;;;;;;7.88;1.33;;;;;;;8.35;100.00;102036.44;5029156;28;20460;-80
2022/03/16 05:43:43;;;;;;;7.25;1.33;;;;;;;8.29;100.00;102041.22;5028710;28;20046;-82
2022/03/16 05:46:12;;;;;;;5.95;1.00;;;;;;;8.28;100.00;102036.91;5029139;28;20054;-82
2022/03/16 05:48:42;;;;;;;3.30;1.15;;;;;;;8.26;100.00;102038.47;5028923;28;20085;-82
2022/03/16 05:51:11;;;;;;;5.93;1.20;;;;;;;8.23;100.00;102049.50;5029247;28;20139;-82
2022/03/16 05:53:39;;;;;;;3.00;0.60;;;;;;;8.19;100.00;102048.41;5028756;28;20127;-82
2022/03/16 05:56:08;;;;;;;3.97;0.75;;;;;;;8.10;100.00;102044.41;5029110;28;20132;-82
2022/03/16 05:58:36;;;;;;;1.90;0.65;;;;;;;8.14;100.00;102055.00;5028861;28;20108;-82
2022/03/16 06:01:05;;;;;;;2.38;0.90;;;;;;;8.14;100.00;102060.16;5015092;28;20092;-82
2022/03/16 06:03:33;;;;;;;8.82;1.05;;;;;;;8.14;100.00;102064.44;5031060;28;20525;-81
2022/03/16 06:06:04;;;;;;;2.25;1.13;;;;;;;8.12;100.00;102069.47;5028496;28;20064;-82
2022/03/16 06:08:33;;;;;;;7.93;0.82;;;;;;;8.09;100.00;102069.31;5023818;28;20799;-82
2022/03/16 06:11:02;;;;;;;1.95;0.80;;;;;;;8.05;100.00;102069.91;5018780;28;20281;-82
2022/03/16 06:13:30;;;;;;;7.00;1.27;;;;;;;8.03;100.00;102074.09;5028460;28;20236;-82
2022/03/16 06:15:59;;;;;;;3.97;1.17;;;;;;;8.00;100.00;102071.31;5028516;28;20049;-83
2022/03/16 06:18:27;;;;;;;3.88;1.30;;;;;;;7.97;100.00;102078.84;5028610;28;20500;-83
2022/03/16 06:20:56;;;;;;;4.47;1.48;;;;;;;7.93;100.00;102079.50;5027008;28;20058;-83
2022/03/16 06:23:26;;;;;;;4.13;1.25;;;;;;;7.89;100.00;102082.66;5029777;28;20045;-84
2022/03/16 06:25:54;;;;;;;5.85;1.52;;;;;;;7.88;100.00;102089.50;5028229;28;20067;-86
2022/03/16 06:28:23;;;;;;;8.73;1.10;;;;;;;7.85;100.00;102086.72;5028118;28;20133;-84
2022/03/16 06:30:51;;;;;;;6.25;1.40;;;;;;;7.76;100.00;102083.59;5028165;28;20494;-84
2022/03/16 06:33:20;;;;;;;3.42;1.30;;;;;;;7.81;100.00;102094.16;5027649;28;20053;-83
2022/03/16 06:35:49;;;;;;;2.92;1.00;;;;;;;7.83;100.00;102097.75;5027971;28;20045;-84
2022/03/16 06:38:18;;;;;;;2.45;0.93;;;;;;;7.84;100.00;102102.13;5027911;28;20428;-82
2022/03/16 06:40:48;;;;;;;3.42;1.33;;;;;;;7.85;100.00;102106.47;5028803;28;20112;-84
2022/03/16 06:43:16;;;;;;;2.25;0.98;;;;;;;7.84;100.00;102105.56;5028483;28;20519;-84
2022/03/16 06:45:45;;;;;;;9.45;2.40;;;;;;;7.84;100.00;102105.56;5028649;28;20447;-81
2022/03/16 06:48:13;;;;;;;6.15;1.40;;;;;;;7.84;100.00;102105.56;5028048;28;20081;-81
2022/03/16 06:50:42;;;;;;;4.65;1.33;;;;;;;7.76;100.00;102092.22;5030629;28;20057;-81
2022/03/16 06:53:11;;;;;;;8.57;1.60;;;;;;;7.82;100.00;102108.84;5032250;28;20041;-84
2022/03/16 06:55:40;;;;;;;4.05;1.48;;;;;;;7.81;100.00;102105.41;5032395;28;20045;-82
2022/03/16 06:58:10;;;;;;;4.10;1.30;;;;;;;7.74;100.00;102098.97;5052505;28;20049;-83
2022/03/16 07:00:39;;;;;;;7.97;1.20;;;;;;;7.71;100.00;102109.06;5052259;28;20052;-84
2022/03/16 07:03:08;;;;;;;3.67;1.08;;;;;;;7.72;100.00;102109.97;5054182;28;20057;-83
2022/03/16 07:05:38;;;;;;;2.15;1.13;;;;;;;7.74;100.00;102108.34;5051766;28;20068;-82
2022/03/16 07:08:07;;;;;;;6.97;1.50;;;;;;;7.79;100.00;102111.22;5052374;28;20498;-82
2022/03/16 07:10:37;;;;;;;6.15;1.23;;;;;;;7.80;100.00;102108.75;5052009;28;20049;-81
2022/03/16 07:13:06;;;;;;;3.58;1.33;;;;;;;7.80;100.00;102097.56;5051756;28;20504;-82
2022/03/16 07:15:36;;;;;;;1.13;0.85;;;;;;;7.78;100.00;102096.56;5051606;28;20099;-82
2022/03/16 07:18:05;;;;;;;4.72;1.17;;;;;;;7.76;100.00;102102.53;5037532;28;20561;-82
2022/03/16 07:20:35;;;;;;;2.90;1.10;;;;;;;7.81;100.00;102104.47;5051485;28;20227;-83
2022/03/16 07:23:05;;;;;;;6.95;0.95;;;;;;;7.87;100.00;102112.59;5047464;28;20247;-83
2022/03/16 07:25:34;;;;;;;3.67;1.38;;;;;;;7.91;100.00;102112.00;5011283;28;20050;-83
2022/03/16 07:28:10;;;;;;;7.85;1.40;;;;;;;7.93;100.00;102113.00;5011754;28;20156;-85
2022/03/16 07:30:41;;;;;;;4.68;1.08;;;;;;;7.94;100.00;102107.91;4998522;28;20046;-81
2022/03/16 07:33:10;;;;;;;4.55;0.77;;;;;;;7.93;100.00;102110.41;5011851;28;20052;-84
2022/03/16 07:35:39;;;;;;;1.58;0.75;;;;;;;7.89;100.00;102111.00;5011455;28;20054;-82
2022/03/16 07:38:08;;;;;;;4.55;1.10;;;;;;;7.86;100.00;102109.13;5011740;28;20100;-80
2022/03/16 07:40:37;;;;;;;4.00;1.48;;;;;;;7.86;100.00;102114.28;5010810;28;20562;-82
2022/03/16 07:43:07;;;;;;;1.73;0.70;;;;;;;7.86;100.00;102110.84;5010859;28;20050;-82
2022/03/16 07:45:36;;;;;;;10.88;0.93;;;;;;;7.84;100.00;102104.69;5012072;28;20491;-81
2022/03/16 07:48:06;;;;;;;4.95;0.95;;;;;;;7.76;100.00;102107.69;5011044;28;20127;-81
2022/03/16 07:50:42;;;;;;;2.63;1.00;;;;;;;7.58;100.00;102093.63;5011863;28;20038;-85
2022/03/16 07:53:10;;;;;;;5.63;1.17;;;;;;;7.63;100.00;102110.28;5012012;28;20152;-82
2022/03/16 07:55:39;;;;;;;1.80;0.80;;;;;;;7.59;100.00;102112.56;5011565;28;20503;-82
2022/03/16 07:58:07;;;;;;;6.38;1.30;;;;;;;7.54;100.00;102113.16;5011715;28;20144;-83
2022/03/16 08:00:36;;;;;;;6.90;0.93;;;;;;;7.52;100.00;102111.28;5000634;28;20058;-83
2022/03/16 08:03:06;;;;;;;2.17;0.90;;;;;;;7.51;100.00;102105.25;4994362;28;20051;-84
2022/03/16 08:05:35;;;;;;;1.02;0.47;;;;;;;7.46;100.00;102111.78;5013987;28;20050;-83
2022/03/16 08:08:04;;;;;;;2.65;0.90;;;;;;;7.43;100.00;102110.69;5011779;28;20056;-82
2022/03/16 08:10:32;;;;;;;9.32;1.02;;;;;;;7.39;100.00;102113.88;5010999;28;20155;-82
2022/03/16 08:13:01;;;;;;;3.28;1.27;;;;;;;7.36;100.00;102113.69;5010973;28;20105;-83
2022/03/16 08:15:29;;;;;;;2.35;0.75;;;;;;;7.37;100.00;102116.34;4998772;28;20107;-83
2022/03/16 08:17:58;;;;;;;4.63;0.70;;;;;;;7.30;100.00;102098.72;5010106;28;20198;-84
2022/03/16 08:20:28;;;;;;;4.13;0.77;;;;;;;7.36;100.00;102104.25;5010826;28;20492;-84
2022/03/16 08:22:57;;;;;;;6.20;0.70;;;;;;;7.37;100.00;102112.88;5012100;28;20238;-84
2022/03/16 08:25:26;;;;;;;4.63;0.70;;;;;;;7.36;100.00;102116.25;5011216;28;20046;-83
2022/03/16 08:27:55;;;;;;;3.03;0.82;;;;;;;7.33;100.00;102120.41;5011523;28;20057;-84
2022/03/16 08:30:23;;;;;;;3.90;0.75;;;;;;;7.32;100.00;102116.03;5010840;28;20080;-85
2022/03/16 08:32:52;;;;;;;8.27;0.80;;;;;;;7.30;100.00;102109.00;5010912;28;20042;-84
2022/03/16 08:35:22;;;;;;;3.00;0.70;;;;;;;7.28;100.00;102116.66;5029707;28;20446;-84
2022/03/16 08:37:52;;;;;;;5.97;1.60;;;;;;;7.25;100.00;102118.13;5030371;28;20104;-84
2022/03/16 08:40:21;;;;;;;3.65;0.63;;;;;;;7.21;100.00;102124.75;5030480;28;20127;-84
2022/03/16 08:42:51;;;;;;;3.88;0.95;;;;;;;7.19;100.00;102121.19;5029869;28;20049;-84
2022/03/16 08:45:19;;;;;;;5.47;1.05;;;;;;;7.17;100.00;102122.78;5030261;28;20108;-84
2022/03/16 08:47:48;;;;;;;4.40;0.93;;;;;;;7.15;100.00;102134.66;5030111;28;20120;-83
2022/03/16 08:50:16;;;;;;;2.67;0.93;;;;;;;7.11;100.00;102132.69;5030093;28;20050;-82
2022/03/16 08:52:45;;;;;;;4.97;0.93;;;;;;;7.10;100.00;102138.59;5029665;28;20041;-85
2022/03/16 08:55:16;;;;;;;5.90;0.85;;;;;;;7.09;100.00;102141.97;5029942;28;20049;-83
2022/03/16 08:57:44;;;;;;;9.48;1.13;;;;;;;7.07;100.00;102147.00;5030110;28;20050;-84
2022/03/16 09:00:15;;;;;;;3.15;0.77;;;;;;;7.03;100.00;102132.19;5022355;28;20104;-84
2022/03/16 09:02:44;;;;;;;1.35;0.57;;;;;;;7.02;100.00;102142.38;5012810;28;20080;-84
2022/03/16 09:05:15;;;;;;;4.90;1.10;;;;;;;6.99;100.00;102132.75;5009851;28;20093;-84
2022/03/16 09:07:43;;;;;;;3.85;0.75;;;;;;;7.00;100.00;102149.09;5010601;28;20057;-84
2022/03/16 09:10:12;;;;;;;5.53;1.00;;;;;;;6.98;100.00;102145.53;5009833;28;20046;-85
2022/03/16 09:12:43;;;;;;;1.63;0.95;;;;;;;6.93;100.00;102146.09;5009238;28;20058;-86
2022/03/16 09:15:12;;;;;;;3.85;1.20;;;;;;;6.84;100.00;102150.63;5010392;28;20052;-84
2022/03/16 09:17:40;;;;;;;15.00;1.70;;;;;;;6.84;100.00;102160.94;5009707;28;20053;-85
2022/03/16 09:20:09;;;;;;;7.70;1.75;;;;;;;6.81;100.00;102157.28;5009494;28;20084;-83
2022/03/16 09:22:37;;;;;;;5.25;1.55;;;;;;;6.79;100.00;102158.84;5009566;28;20104;-83
2022/03/16 09:25:07;;;;;;;3.95;1.40;;;;;;;6.75;100.00;102162.88;5027927;28;20049;-83
2022/03/16 09:27:37;;;;;;;3.90;1.40;;;;;;;6.73;100.00;102159.31;5028871;28;20049;-83
2022/03/16 09:30:08;;;;;;;3.10;0.75;;;;;;;6.70;100.00;102160.00;5028744;28;20057;-84
2022/03/16 09:32:39;;;;;;;8.13;1.33;;;;;;;6.68;100.00;102164.16;5028548;28;20052;-84
2022/03/16 09:35:09;;;;;;;6.13;0.80;;;;;;;6.66;100.00;102168.28;5011338;28;20408;-86
2022/03/16 09:37:37;;;;;;;6.10;1.20;;;;;;;6.63;100.00;102162.94;5008472;28;20058;-85
2022/03/16 09:40:07;;;;;;;3.30;0.95;;;;;;;6.61;100.00;102168.78;5025562;28;20042;-86
2022/03/16 09:42:39;;;;;;;2.22;0.63;;;;;;;6.57;100.00;102161.63;5028777;28;20049;-84
2022/03/16 09:45:17;;;;;;;9.90;1.25;;;;;;;6.55;100.00;102178.63;5029216;28;20521;-83
2022/03/16 09:47:47;;;;;;;4.40;1.05;;;;;;;6.49;100.00;102184.28;5029627;28;20061;-83
2022/03/16 09:50:18;;;;;;;2.83;0.80;;;;;;;6.43;100.00;102179.56;5029385;28;20069;-84
2022/03/16 09:52:47;;;;;;;2.55;0.90;;;;;;;6.41;100.00;102178.56;5029186;28;20056;-84
2022/03/16 09:55:17;;;;;;;6.10;1.50;;;;;;;6.38;100.00;102186.09;5028778;28;20061;-84
2022/03/16 09:57:45;;;;;;;3.75;1.55;;;;;;;6.30;100.00;102187.25;5029425;28;20103;-84
2022/03/16 10:00:17;;;;;;;4.35;1.88;;;;;;;6.32;100.00;102185.66;5022342;28;20650;-84
2022/03/16 10:02:46;;;;;;;6.93;1.93;;;;;;;6.32;100.00;102184.75;5025296;28;20247;-85
2022/03/16 10:05:19;;;;;;;2.72;1.35;;;;;;;6.28;100.00;102189.72;5029173;28;20077;-84
2022/03/16 10:07:48;;;;;;;5.70;1.35;;;;;;;6.26;100.00;102183.56;5018984;28;20050;-84
2022/03/16 10:13:15;;;;;;;1.33;0.82;;;;;;;6.23;100.00;102178.22;5028429;28;20200;-84
2022/03/16 10:15:45;;;;;;;5.65;1.27;;;;;;;6.20;100.00;102184.81;5031560;28;20041;-84
2022/03/16 10:18:18;;;;;;;6.70;1.20;;;;;;;6.19;100.00;102183.03;5031112;28;20050;-86
2022/03/16 10:20:47;;;;;;;5.18;1.48;;;;;;;6.18;100.00;102176.97;5036878;28;20038;-84
2022/03/16 10:23:18;;;;;;;6.13;1.35;;;;;;;6.18;100.00;102174.41;5029725;28;20102;-84
2022/03/16 10:25:51;;;;;;;2.70;0.75;;;;;;;6.18;100.00;102183.81;5031810;28;20124;-85
2022/03/16 10:28:19;;;;;;;;;;;;;;;6.18;100.00;102178.66;5035695;28;20136;-83
2022/03/16 10:30:57;;;;;;;5.80;1.45;;;;;;;6.14;100.00;102177.56;5033313;28;19979;-85
2022/03/16 10:33:29;;;;;;;3.03;0.90;;;;;;;6.15;100.00;102179.34;5052258;28;20045;-84
2022/03/16 10:36:04;;;;;;;3.70;1.10;;;;;;;6.14;100.00;102177.56;5052510;28;20102;-85
2022/03/16 10:38:37;;;;;;;2.63;1.00;;;;;;;6.13;100.00;102180.03;5052281;28;20510;-84
2022/03/16 10:41:14;;;;;;;6.57;1.45;;;;;;;6.13;100.00;102173.19;5051992;28;20052;-84
2022/03/16 10:46:38;;;;;;;3.53;0.98;;;;;;;6.06;100.00;102160.72;5052914;28;20056;-84
2022/03/16 10:49:09;;;;;;;3.85;0.90;;;;;;;6.13;100.00;102180.03;5052376;28;20052;-83
2022/03/16 10:51:39;;;;;;;5.85;1.05;;;;;;;6.11;100.00;102179.91;5052560;28;20049;-85
2022/03/16 10:54:07;;;;;;;4.75;1.50;;;;;;;6.13;100.00;102180.03;5050737;28;20111;-85
2022/03/16 10:56:39;;;;;;;11.10;1.45;;;;;;;6.14;100.00;102181.78;5044434;28;20056;-84
2022/03/16 10:59:09;;;;;;;7.97;1.58;;;;;;;6.15;100.00;102179.34;5043860;28;20101;-84
2022/03/16 11:01:40;;;;;;;1.83;1.27;;;;;;;6.15;100.00;102181.03;5055469;28;20491;-85
2022/03/16 11:04:09;;;;;;;6.15;1.73;;;;;;;6.14;100.00;102176.66;5043159;28;20104;-84
2022/03/16 11:06:38;;;;;;;6.78;1.35;;;;;;;6.12;100.00;102173.13;5069252;28;20049;-83
2022/03/16 11:09:10;;;;;;;4.57;1.45;;;;;;;6.03;100.00;102156.25;5043866;28;20132;-83
2022/03/16 11:14:27;;;;;;;4.57;2.00;;;;;;;6.06;100.00;102165.84;5051647;28;20044;-82
2022/03/16 11:16:58;;;;;;;2.40;1.17;;;;;;;6.03;100.00;102166.53;5045623;28;20495;-82
2022/03/16 11:19:27;;;;;;;2.55;1.45;;;;;;;6.04;100.00;102170.00;5060659;28;20129;-83
2022/03/16 11:22:04;;;;;;;4.22;1.30;;;;;;;6.05;100.00;102170.09;5054411;28;20656;-83
2022/03/16 11:24:39;;;;;;;2.92;1.13;;;;;;;6.10;100.00;102166.97;5061359;28;20057;-85
2022/03/16 11:27:31;;;;;;;4.35;1.45;;;;;;;6.11;100.00;102163.59;5039284;28;20056;-84
2022/03/16 11:30:16;;;;;;;6.00;1.73;;;;;;;6.10;100.00;102172.13;5033601;28;20045;-86
2022/03/16 11:32:47;;;;;;;7.03;2.03;;;;;;;6.08;100.00;102172.88;5050128;28;20053;-85
2022/03/16 11:35:18;;;;;;;4.90;1.48;;;;;;;6.07;100.00;102167.66;5050953;28;20055;-85
2022/03/16 11:37:49;;;;;;;4.63;1.17;;;;;;;6.06;100.00;102177.00;5051216;28;20049;-87
2022/03/16 11:40:20;;;;;;;4.88;0.88;;;;;;;6.04;100.00;102176.00;5050994;28;20626;-86
2022/03/16 11:43:17;;;;;;;9.00;1.48;;;;;;;6.01;100.00;102162.97;5050461;28;20053;-84
2022/03/16 11:45:50;;;;;;;6.00;1.30;;;;;;;6.05;100.00;102174.38;5050976;28;20077;-85